createdAt,value
2017-12-02T00:00:17.560Z,21.13
2017-12-02T00:00:45.583Z,21.05
2017-12-02T00:01:13.734Z,21.11
2017-12-02T00:01:41.903Z,21.14
2017-12-02T00:02:09.953Z,21.15
2017-12-02T00:02:38.127Z,21.11
2017-12-02T00:03:06.255Z,21.11
2017-12-02T00:03:34.406Z,21.2
2017-12-02T00:04:02.548Z,21.25
2017-12-02T00:04:30.606Z,21.2
2017-12-02T00:04:58.802Z,21.15
2017-12-02T00:05:26.959Z,21.25
2017-12-02T00:05:55.133Z,21.1
2017-12-02T00:06:23.210Z,21.1
2017-12-02T00:06:51.162Z,21.07
2017-12-02T00:07:19.351Z,21.05
2017-12-02T00:07:47.494Z,20.98
2017-12-02T00:08:15.626Z,21.01
2017-12-02T00:08:43.685Z,20.98
2017-12-02T00:09:11.703Z,21.03
2017-12-02T00:09:39.757Z,21.14
2017-12-02T00:10:07.804Z,21.07
2017-12-02T00:10:35.961Z,21.01
2017-12-02T00:11:04.011Z,20.96
2017-12-02T00:11:32.063Z,21.04
2017-12-02T00:12:00.203Z,21.04
2017-12-02T00:12:28.370Z,21.01
2017-12-02T00:12:56.538Z,21
2017-12-02T00:13:24.724Z,20.95
2017-12-02T00:13:52.873Z,21.05
2017-12-02T00:14:20.838Z,21.05
2017-12-02T00:14:48.905Z,21.03
2017-12-02T00:15:16.954Z,21.04
2017-12-02T00:15:44.931Z,21.05
2017-12-02T00:16:12.988Z,20.98
2017-12-02T00:16:41.046Z,20.9
2017-12-02T00:17:08.989Z,20.92
2017-12-02T00:17:37.044Z,20.95
2017-12-02T00:18:05.197Z,20.88
2017-12-02T00:18:33.147Z,20.78
2017-12-02T00:19:01.269Z,20.85
2017-12-02T00:19:29.351Z,20.78
2017-12-02T00:19:57.513Z,20.71
2017-12-02T00:20:25.652Z,20.8
2017-12-02T00:20:53.694Z,20.78
2017-12-02T00:21:21.852Z,20.75
2017-12-02T00:21:49.925Z,20.73
2017-12-02T00:22:17.967Z,20.71
2017-12-02T00:22:46.042Z,20.71
2017-12-02T00:23:14.207Z,20.7
2017-12-02T00:23:42.382Z,20.66
2017-12-02T00:24:10.219Z,20.64
2017-12-02T00:24:38.393Z,20.63
2017-12-02T00:25:06.551Z,20.6
2017-12-02T00:25:34.707Z,20.59
2017-12-02T00:26:02.737Z,20.59
2017-12-02T00:26:30.798Z,20.59
2017-12-02T00:26:58.955Z,20.53
2017-12-02T00:27:27.128Z,20.55
2017-12-02T00:27:55.218Z,20.49
2017-12-02T00:28:23.375Z,20.59
2017-12-02T00:28:51.402Z,20.59
2017-12-02T00:29:19.354Z,20.58
2017-12-02T00:29:47.542Z,20.56
2017-12-02T00:30:15.673Z,20.6
2017-12-02T00:30:43.743Z,20.58
2017-12-02T00:31:11.774Z,20.6
2017-12-02T00:31:39.886Z,20.59
2017-12-02T00:32:07.826Z,20.53
2017-12-02T00:32:35.983Z,20.63
2017-12-02T00:33:04.174Z,20.66
2017-12-02T00:33:32.331Z,20.59
2017-12-02T00:34:00.478Z,20.71
2017-12-02T00:34:28.538Z,20.59
2017-12-02T00:34:56.583Z,20.64
2017-12-02T00:35:24.623Z,20.59
2017-12-02T00:35:53.324Z,20.6
2017-12-02T00:36:21.547Z,20.59
2017-12-02T00:36:49.675Z,20.59
2017-12-02T00:37:17.847Z,20.64
2017-12-02T00:37:45.797Z,20.6
2017-12-02T00:38:13.972Z,20.63
2017-12-02T00:38:42.033Z,20.63
2017-12-02T00:39:10.205Z,20.64
2017-12-02T00:39:38.395Z,20.63
2017-12-02T00:40:06.559Z,20.74
2017-12-02T00:40:34.725Z,20.71
2017-12-02T00:41:02.870Z,20.63
2017-12-02T00:41:31.036Z,20.64
2017-12-02T00:41:59.049Z,20.7
2017-12-02T00:42:27.252Z,20.68
2017-12-02T00:42:55.416Z,20.75
2017-12-02T00:43:23.552Z,20.64
2017-12-02T00:43:51.772Z,20.68
2017-12-02T00:44:19.926Z,20.6
2017-12-02T00:44:48.075Z,20.68
2017-12-02T00:45:16.227Z,20.64
2017-12-02T00:45:44.249Z,20.58
2017-12-02T00:46:12.382Z,20.63
2017-12-02T00:46:40.448Z,20.6
2017-12-02T00:47:08.578Z,20.71
2017-12-02T00:47:36.627Z,20.71
2017-12-02T00:48:04.783Z,20.68
2017-12-02T00:48:32.914Z,20.64
2017-12-02T00:49:00.841Z,20.73
2017-12-02T00:49:28.908Z,20.73
2017-12-02T00:49:56.965Z,20.7
2017-12-02T00:50:25.017Z,20.64
2017-12-02T00:50:52.951Z,20.6
2017-12-02T00:51:21.104Z,20.58
2017-12-02T00:51:49.363Z,20.56
2017-12-02T00:52:17.512Z,20.64
2017-12-02T00:52:45.452Z,20.58
2017-12-02T00:53:13.630Z,20.59
2017-12-02T00:53:41.655Z,20.59
2017-12-02T00:54:09.582Z,20.58
2017-12-02T00:54:37.777Z,20.53
2017-12-02T00:55:05.889Z,20.52
2017-12-02T00:55:34.032Z,20.52
2017-12-02T00:56:02.169Z,20.44
2017-12-02T00:56:30.307Z,20.42
2017-12-02T00:56:58.349Z,20.4
2017-12-02T00:57:26.411Z,20.44
2017-12-02T00:57:54.558Z,20.39
2017-12-02T00:58:22.750Z,20.33
2017-12-02T00:58:50.815Z,20.39
2017-12-02T00:59:18.862Z,20.33
2017-12-02T00:59:46.990Z,20.32
2017-12-02T01:00:15.032Z,20.37
2017-12-02T01:00:43.004Z,20.32
2017-12-02T01:01:11.070Z,20.27
2017-12-02T01:01:39.087Z,20.27
2017-12-02T01:02:07.125Z,20.29
2017-12-02T01:02:35.170Z,20.32
2017-12-02T01:03:03.349Z,20.32
2017-12-02T01:03:31.552Z,20.33
2017-12-02T01:03:59.665Z,20.34
2017-12-02T01:04:27.614Z,20.24
2017-12-02T01:04:55.769Z,20.3
2017-12-02T01:05:23.902Z,20.3
2017-12-02T01:05:51.957Z,20.3
2017-12-02T01:06:19.971Z,20.34
2017-12-02T01:06:48.084Z,20.34
2017-12-02T01:07:16.193Z,20.22
2017-12-02T01:07:44.347Z,20.26
2017-12-02T01:08:12.358Z,20.27
2017-12-02T01:08:40.419Z,20.22
2017-12-02T01:09:08.571Z,20.21
2017-12-02T01:09:36.613Z,20.19
2017-12-02T01:10:04.642Z,20.18
2017-12-02T01:10:32.676Z,20.26
2017-12-02T01:11:00.720Z,20.21
2017-12-02T01:11:28.869Z,20.22
2017-12-02T01:11:56.857Z,20.19
2017-12-02T01:12:24.983Z,20.33
2017-12-02T01:12:52.913Z,20.22
2017-12-02T01:13:21.103Z,20.18
2017-12-02T01:13:49.458Z,20.37
2017-12-02T01:14:18.098Z,20.34
2017-12-02T01:14:46.691Z,20.3
2017-12-02T01:15:15.156Z,20.3
2017-12-02T01:15:43.817Z,20.29
2017-12-02T01:16:12.410Z,20.39
2017-12-02T01:16:40.830Z,20.3
2017-12-02T01:17:09.351Z,20.4
2017-12-02T01:17:37.970Z,20.42
2017-12-02T01:18:06.604Z,20.42
2017-12-02T01:18:34.907Z,20.37
2017-12-02T01:19:03.419Z,20.39
2017-12-02T01:19:32.006Z,20.56
2017-12-02T01:20:00.628Z,20.48
2017-12-02T01:20:29.240Z,20.42
2017-12-02T01:20:57.722Z,20.48
2017-12-02T01:21:26.334Z,20.44
2017-12-02T01:21:55.034Z,20.44
2017-12-02T01:22:23.512Z,20.5
2017-12-02T01:22:52.105Z,20.48
2017-12-02T01:23:20.725Z,20.56
2017-12-02T01:23:49.349Z,20.59
2017-12-02T01:24:17.858Z,20.52
2017-12-02T01:24:46.356Z,20.56
2017-12-02T01:25:14.875Z,20.63
2017-12-02T01:25:43.485Z,20.6
2017-12-02T01:26:12.101Z,20.63
2017-12-02T01:26:40.715Z,20.63
2017-12-02T01:27:09.418Z,20.49
2017-12-02T01:27:38.048Z,20.55
2017-12-02T01:28:06.663Z,20.42
2017-12-02T01:28:35.247Z,20.53
2017-12-02T01:29:03.838Z,20.44
2017-12-02T01:29:32.420Z,20.4
2017-12-02T01:30:01.004Z,20.4
2017-12-02T01:30:29.510Z,20.4
2017-12-02T01:30:58.020Z,20.37
2017-12-02T01:31:26.650Z,20.29
2017-12-02T01:31:55.308Z,20.29
2017-12-02T01:32:23.965Z,20.27
2017-12-02T01:32:52.552Z,20.33
2017-12-02T01:33:21.866Z,20.34
2017-12-02T01:33:50.478Z,20.3
2017-12-02T01:34:19.024Z,20.3
2017-12-02T01:34:47.652Z,20.29
2017-12-02T01:35:16.148Z,20.33
2017-12-02T01:35:44.656Z,20.27
2017-12-02T01:36:13.287Z,20.19
2017-12-02T01:36:41.885Z,20.36
2017-12-02T01:37:10.642Z,20.3
2017-12-02T01:37:39.136Z,20.22
2017-12-02T01:38:07.753Z,20.27
2017-12-02T01:38:36.342Z,20.32
2017-12-02T01:39:04.841Z,20.3
2017-12-02T01:39:33.342Z,20.32
2017-12-02T01:40:01.843Z,20.33
2017-12-02T01:40:30.346Z,20.33
2017-12-02T01:40:58.957Z,20.36
2017-12-02T01:41:27.291Z,20.29
2017-12-02T01:41:55.878Z,20.34
2017-12-02T01:42:25.224Z,20.33
2017-12-02T01:42:53.732Z,20.37
2017-12-02T01:43:22.337Z,20.36
2017-12-02T01:43:50.949Z,20.27
2017-12-02T01:44:19.580Z,20.36
2017-12-02T01:44:48.173Z,20.37
2017-12-02T01:45:16.767Z,20.29
2017-12-02T01:45:45.259Z,20.3
2017-12-02T01:46:13.872Z,20.3
2017-12-02T01:46:42.461Z,20.39
2017-12-02T01:47:11.067Z,20.34
2017-12-02T01:47:39.577Z,20.42
2017-12-02T01:48:08.163Z,20.29
2017-12-02T01:48:36.757Z,20.42
2017-12-02T01:49:05.259Z,20.27
2017-12-02T01:49:33.842Z,20.3
2017-12-02T01:50:02.443Z,20.32
2017-12-02T01:50:31.065Z,20.3
2017-12-02T01:50:59.669Z,20.24
2017-12-02T01:51:28.260Z,20.26
2017-12-02T01:51:56.785Z,20.21
2017-12-02T01:52:25.350Z,20.26
2017-12-02T01:52:53.876Z,20.17
2017-12-02T01:53:22.382Z,20.14
2017-12-02T01:53:50.898Z,20.14
2017-12-02T01:54:19.489Z,20.11
2017-12-02T01:54:48.127Z,20.12
2017-12-02T01:55:16.627Z,20.12
2017-12-02T01:55:45.235Z,20.14
2017-12-02T01:56:13.861Z,20.07
2017-12-02T01:56:42.363Z,20.12
2017-12-02T01:57:10.754Z,20.15
2017-12-02T01:57:39.369Z,20.11
2017-12-02T01:58:07.984Z,20.1
2017-12-02T01:58:36.592Z,20.11
2017-12-02T01:59:05.177Z,20.14
2017-12-02T01:59:33.676Z,20.14
2017-12-02T02:00:02.288Z,20.11
2017-12-02T02:00:30.806Z,20.08
2017-12-02T02:00:59.398Z,20.12
2017-12-02T02:01:28.563Z,20.19
2017-12-02T02:01:57.084Z,20.12
2017-12-02T02:02:25.497Z,20.14
2017-12-02T02:02:54.083Z,20.17
2017-12-02T02:03:22.578Z,20.19
2017-12-02T02:03:51.074Z,20.18
2017-12-02T02:04:19.479Z,20.15
2017-12-02T02:04:48.074Z,20.27
2017-12-02T02:05:16.687Z,20.17
2017-12-02T02:05:45.169Z,20.19
2017-12-02T02:06:13.774Z,20.17
2017-12-02T02:06:42.370Z,20.17
2017-12-02T02:07:11.080Z,20.17
2017-12-02T02:07:39.673Z,20.18
2017-12-02T02:08:08.065Z,20.19
2017-12-02T02:08:36.668Z,20.15
2017-12-02T02:09:05.255Z,20.21
2017-12-02T02:09:33.856Z,20.18
2017-12-02T02:10:02.376Z,20.26
2017-12-02T02:10:30.968Z,20.21
2017-12-02T02:10:59.576Z,20.22
2017-12-02T02:11:28.051Z,20.26
2017-12-02T02:11:56.630Z,20.26
2017-12-02T02:12:25.232Z,20.22
2017-12-02T02:12:53.710Z,20.22
2017-12-02T02:13:22.191Z,20.21
2017-12-02T02:13:50.793Z,20.21
2017-12-02T02:14:19.362Z,20.26
2017-12-02T02:14:47.964Z,20.22
2017-12-02T02:15:16.575Z,20.24
2017-12-02T02:15:45.195Z,20.21
2017-12-02T02:16:13.819Z,20.22
2017-12-02T02:16:42.415Z,20.22
2017-12-02T02:17:10.900Z,20.19
2017-12-02T02:17:39.490Z,20.22
2017-12-02T02:18:07.994Z,20.24
2017-12-02T02:18:36.604Z,20.27
2017-12-02T02:19:05.228Z,20.21
2017-12-02T02:19:33.729Z,20.19
2017-12-02T02:20:02.318Z,20.21
2017-12-02T02:20:30.817Z,20.17
2017-12-02T02:20:59.428Z,20.22
2017-12-02T02:21:27.917Z,20.22
2017-12-02T02:21:56.281Z,20.19
2017-12-02T02:22:24.897Z,20.22
2017-12-02T02:22:53.479Z,20.3
2017-12-02T02:23:21.993Z,20.36
2017-12-02T02:23:50.622Z,20.26
2017-12-02T02:24:19.072Z,20.36
2017-12-02T02:24:47.714Z,20.27
2017-12-02T02:25:16.331Z,20.29
2017-12-02T02:25:44.926Z,20.37
2017-12-02T02:26:13.528Z,20.4
2017-12-02T02:26:42.094Z,20.46
2017-12-02T02:27:10.590Z,20.5
2017-12-02T02:27:39.113Z,20.48
2017-12-02T02:28:07.720Z,20.5
2017-12-02T02:28:36.225Z,20.53
2017-12-02T02:29:04.874Z,20.55
2017-12-02T02:29:33.476Z,20.58
2017-12-02T02:30:02.095Z,20.63
2017-12-02T02:30:30.699Z,20.56
2017-12-02T02:30:59.289Z,20.58
2017-12-02T02:31:27.817Z,20.58
2017-12-02T02:31:56.473Z,20.59
2017-12-02T02:32:25.058Z,20.63
2017-12-02T02:32:53.932Z,20.58
2017-12-02T02:33:22.530Z,20.55
2017-12-02T02:33:51.127Z,20.63
2017-12-02T02:34:19.722Z,20.48
2017-12-02T02:34:48.336Z,20.48
2017-12-02T02:35:16.771Z,20.48
2017-12-02T02:35:45.395Z,20.42
2017-12-02T02:36:14.003Z,20.4
2017-12-02T02:36:42.590Z,20.46
2017-12-02T02:37:11.169Z,20.4
2017-12-02T02:37:39.644Z,20.52
2017-12-02T02:38:08.053Z,20.53
2017-12-02T02:38:36.819Z,20.48
2017-12-02T02:39:05.432Z,20.53
2017-12-02T02:39:34.029Z,20.59
2017-12-02T02:40:02.541Z,20.63
2017-12-02T02:40:31.112Z,20.59
2017-12-02T02:40:59.702Z,20.59
2017-12-02T02:41:28.207Z,20.59
2017-12-02T02:41:56.523Z,20.55
2017-12-02T02:42:25.056Z,20.58
2017-12-02T02:42:53.692Z,20.64
2017-12-02T02:43:22.303Z,20.59
2017-12-02T02:43:50.811Z,20.44
2017-12-02T02:44:19.296Z,20.46
2017-12-02T02:44:48.042Z,20.44
2017-12-02T02:45:16.544Z,20.4
2017-12-02T02:45:45.175Z,20.39
2017-12-02T02:46:13.780Z,20.42
2017-12-02T02:46:42.395Z,20.32
2017-12-02T02:47:10.893Z,20.34
2017-12-02T02:47:39.505Z,20.36
2017-12-02T02:48:08.108Z,20.27
2017-12-02T02:48:36.721Z,20.3
2017-12-02T02:49:05.239Z,20.34
2017-12-02T02:49:33.861Z,20.3
2017-12-02T02:50:02.474Z,20.33
2017-12-02T02:50:30.989Z,20.21
2017-12-02T02:50:59.485Z,20.32
2017-12-02T02:51:27.990Z,20.32
2017-12-02T02:51:56.483Z,20.24
2017-12-02T02:52:25.000Z,20.32
2017-12-02T02:52:53.755Z,20.32
2017-12-02T02:53:22.336Z,20.24
2017-12-02T02:53:50.924Z,20.26
2017-12-02T02:54:19.517Z,20.24
2017-12-02T02:54:48.110Z,20.22
2017-12-02T02:55:16.634Z,20.15
2017-12-02T02:55:45.228Z,20.27
2017-12-02T02:56:13.801Z,20.22
2017-12-02T02:56:42.443Z,20.26
2017-12-02T02:57:11.072Z,20.26
2017-12-02T02:57:39.659Z,20.18
2017-12-02T02:58:08.188Z,20.24
2017-12-02T02:58:36.682Z,20.19
2017-12-02T02:59:05.303Z,20.22
2017-12-02T02:59:33.912Z,20.18
2017-12-02T03:00:02.487Z,20.15
2017-12-02T03:00:31.013Z,20.21
2017-12-02T03:00:59.520Z,20.14
2017-12-02T03:01:28.158Z,20.14
2017-12-02T03:01:56.688Z,20.11
2017-12-02T03:02:25.304Z,20.15
2017-12-02T03:02:53.829Z,20.07
2017-12-02T03:03:22.362Z,20.07
2017-12-02T03:03:50.976Z,20.07
2017-12-02T03:04:19.401Z,20.14
2017-12-02T03:04:48.011Z,20.12
2017-12-02T03:05:16.409Z,20.08
2017-12-02T03:05:44.872Z,20.14
2017-12-02T03:06:13.431Z,20.12
2017-12-02T03:06:42.026Z,20.1
2017-12-02T03:07:10.635Z,20.11
2017-12-02T03:07:39.248Z,20.15
2017-12-02T03:08:07.925Z,20.11
2017-12-02T03:08:36.518Z,20.14
2017-12-02T03:09:05.018Z,20.15
2017-12-02T03:09:33.412Z,20.12
2017-12-02T03:10:01.911Z,20.11
2017-12-02T03:10:30.455Z,20.1
2017-12-02T03:10:59.088Z,20.11
2017-12-02T03:11:27.593Z,20.11
2017-12-02T03:11:56.097Z,20.11
2017-12-02T03:12:24.707Z,20.08
2017-12-02T03:12:53.216Z,20.08
2017-12-02T03:13:21.728Z,20.08
2017-12-02T03:13:50.328Z,20.07
2017-12-02T03:14:18.923Z,20.04
2017-12-02T03:14:47.501Z,20.04
2017-12-02T03:15:15.986Z,20.02
2017-12-02T03:15:44.496Z,20.04
2017-12-02T03:16:13.111Z,20.04
2017-12-02T03:16:41.709Z,20.03
2017-12-02T03:17:10.319Z,20
2017-12-02T03:17:38.938Z,20.08
2017-12-02T03:18:07.555Z,20.04
2017-12-02T03:18:35.951Z,20.1
2017-12-02T03:19:04.462Z,20.08
2017-12-02T03:19:33.061Z,20.07
2017-12-02T03:20:01.639Z,20.1
2017-12-02T03:20:30.234Z,20.12
2017-12-02T03:20:58.860Z,20.14
2017-12-02T03:21:27.460Z,20.07
2017-12-02T03:21:56.063Z,20.12
2017-12-02T03:22:24.678Z,20.21
2017-12-02T03:22:53.399Z,20.21
2017-12-02T03:23:21.812Z,20.17
2017-12-02T03:23:50.338Z,20.24
2017-12-02T03:24:18.851Z,20.19
2017-12-02T03:24:47.480Z,20.24
2017-12-02T03:25:16.034Z,20.22
2017-12-02T03:25:44.628Z,20.11
2017-12-02T03:26:13.232Z,20.14
2017-12-02T03:26:41.717Z,20.15
2017-12-02T03:27:10.296Z,20.14
2017-12-02T03:27:38.890Z,20.04
2017-12-02T03:28:07.522Z,20.08
2017-12-02T03:28:36.032Z,20.11
2017-12-02T03:29:04.430Z,20.14
2017-12-02T03:29:33.015Z,20.12
2017-12-02T03:30:01.610Z,20.08
2017-12-02T03:30:30.103Z,20.04
2017-12-02T03:30:58.503Z,20.04
2017-12-02T03:31:27.121Z,20.04
2017-12-02T03:31:55.736Z,20.07
2017-12-02T03:32:24.195Z,20.04
2017-12-02T03:32:52.798Z,20.07
2017-12-02T03:33:21.312Z,20.03
2017-12-02T03:33:49.917Z,20.08
2017-12-02T03:34:18.311Z,20.04
2017-12-02T03:34:46.923Z,20
2017-12-02T03:35:15.557Z,20
2017-12-02T03:35:44.161Z,20.02
2017-12-02T03:36:12.784Z,20.03
2017-12-02T03:36:41.279Z,20.02
2017-12-02T03:37:09.660Z,20.08
2017-12-02T03:37:38.241Z,20.08
2017-12-02T03:38:07.138Z,20.08
2017-12-02T03:38:35.654Z,19.99
2017-12-02T03:39:04.081Z,20.07
2017-12-02T03:39:32.699Z,20.1
2017-12-02T03:40:01.219Z,20.08
2017-12-02T03:40:29.805Z,20.07
2017-12-02T03:40:58.379Z,20.08
2017-12-02T03:41:27.000Z,20.1
2017-12-02T03:41:55.595Z,20.03
2017-12-02T03:42:24.201Z,20.11
2017-12-02T03:42:52.774Z,20.04
2017-12-02T03:43:21.419Z,20.14
2017-12-02T03:43:49.825Z,20.17
2017-12-02T03:44:18.524Z,20.14
2017-12-02T03:44:47.029Z,20.12
2017-12-02T03:45:15.607Z,20.12
2017-12-02T03:45:44.208Z,20.15
2017-12-02T03:46:12.672Z,20.15
2017-12-02T03:46:41.304Z,20.24
2017-12-02T03:47:09.708Z,20.14
2017-12-02T03:47:38.340Z,20.15
2017-12-02T03:48:06.863Z,20.24
2017-12-02T03:48:35.370Z,20.26
2017-12-02T03:49:03.883Z,20.26
2017-12-02T03:49:32.414Z,20.18
2017-12-02T03:50:01.020Z,20.24
2017-12-02T03:50:29.521Z,20.24
2017-12-02T03:50:58.148Z,20.27
2017-12-02T03:51:26.856Z,20.21
2017-12-02T03:51:55.487Z,20.22
2017-12-02T03:52:24.112Z,20.22
2017-12-02T03:52:52.619Z,20.19
2017-12-02T03:53:21.359Z,20.24
2017-12-02T03:53:49.968Z,20.21
2017-12-02T03:54:18.480Z,20.27
2017-12-02T03:54:47.085Z,20.22
2017-12-02T03:55:15.610Z,20.26
2017-12-02T03:55:44.131Z,20.24
2017-12-02T03:56:12.746Z,20.26
2017-12-02T03:56:41.334Z,20.18
2017-12-02T03:57:09.773Z,20.26
2017-12-02T03:57:38.392Z,20.22
2017-12-02T03:58:07.019Z,20.26
2017-12-02T03:58:35.716Z,20.22
2017-12-02T03:59:04.339Z,20.34
2017-12-02T03:59:32.839Z,20.19
2017-12-02T04:00:01.457Z,20.21
2017-12-02T04:00:30.095Z,20.29
2017-12-02T04:00:58.681Z,20.24
2017-12-02T04:01:27.210Z,20.26
2017-12-02T04:01:55.707Z,20.19
2017-12-02T04:02:24.230Z,20.22
2017-12-02T04:02:52.845Z,20.21
2017-12-02T04:03:21.330Z,20.22
2017-12-02T04:03:49.927Z,20.19
2017-12-02T04:04:18.212Z,20.24
2017-12-02T04:04:46.709Z,20.21
2017-12-02T04:05:15.335Z,20.22
2017-12-02T04:05:43.942Z,20.14
2017-12-02T04:06:12.584Z,20.15
2017-12-02T04:06:41.241Z,20.12
2017-12-02T04:07:09.864Z,20.12
2017-12-02T04:07:38.487Z,20.12
2017-12-02T04:08:06.986Z,20.12
2017-12-02T04:08:35.681Z,20.07
2017-12-02T04:09:04.168Z,20.12
2017-12-02T04:09:32.669Z,20.08
2017-12-02T04:10:01.268Z,20.04
2017-12-02T04:10:29.674Z,20.11
2017-12-02T04:10:58.307Z,20.14
2017-12-02T04:11:26.810Z,20.1
2017-12-02T04:11:55.402Z,20.07
2017-12-02T04:12:23.905Z,20.02
2017-12-02T04:12:52.507Z,20.04
2017-12-02T04:13:21.112Z,19.96
2017-12-02T04:13:49.731Z,19.94
2017-12-02T04:14:18.110Z,19.92
2017-12-02T04:14:46.650Z,19.97
2017-12-02T04:15:15.324Z,19.96
2017-12-02T04:15:43.788Z,20
2017-12-02T04:16:12.314Z,19.93
2017-12-02T04:16:40.888Z,19.93
2017-12-02T04:17:09.388Z,19.9
2017-12-02T04:17:38.023Z,19.93
2017-12-02T04:18:06.640Z,19.97
2017-12-02T04:18:35.055Z,19.96
2017-12-02T04:19:03.658Z,20
2017-12-02T04:19:32.251Z,19.97
2017-12-02T04:20:00.754Z,20
2017-12-02T04:20:29.288Z,20.07
2017-12-02T04:20:57.872Z,20.08
2017-12-02T04:21:26.268Z,20.1
2017-12-02T04:21:54.873Z,20.03
2017-12-02T04:22:23.282Z,20.02
2017-12-02T04:22:51.804Z,20.07
2017-12-02T04:23:20.408Z,20.08
2017-12-02T04:23:49.075Z,20.07
2017-12-02T04:24:17.682Z,20.02
2017-12-02T04:24:46.289Z,20.03
2017-12-02T04:25:14.681Z,20.07
2017-12-02T04:25:43.286Z,20.1
2017-12-02T04:26:11.801Z,20.04
2017-12-02T04:26:40.412Z,20.03
2017-12-02T04:27:09.011Z,20.02
2017-12-02T04:27:37.620Z,20.03
2017-12-02T04:28:06.215Z,20.03
2017-12-02T04:28:34.766Z,20
2017-12-02T04:29:03.351Z,19.92
2017-12-02T04:29:31.943Z,19.96
2017-12-02T04:30:00.273Z,19.97
2017-12-02T04:30:28.791Z,20.08
2017-12-02T04:30:57.304Z,20.02
2017-12-02T04:31:25.923Z,20
2017-12-02T04:31:54.405Z,20.03
2017-12-02T04:32:22.934Z,20.1
2017-12-02T04:32:51.533Z,20.1
2017-12-02T04:33:20.112Z,20.03
2017-12-02T04:33:48.613Z,20.04
2017-12-02T04:34:17.216Z,20.02
2017-12-02T04:34:45.809Z,20.08
2017-12-02T04:35:14.428Z,20.1
2017-12-02T04:35:42.957Z,20.08
2017-12-02T04:36:11.476Z,20.14
2017-12-02T04:36:40.086Z,20.18
2017-12-02T04:37:08.616Z,20.14
2017-12-02T04:37:37.209Z,20.14
2017-12-02T04:38:05.835Z,20.11
2017-12-02T04:38:34.593Z,20.18
2017-12-02T04:39:03.200Z,20.17
2017-12-02T04:39:31.855Z,20.19
2017-12-02T04:40:00.378Z,20.19
2017-12-02T04:40:29.027Z,20.27
2017-12-02T04:40:57.573Z,20.19
2017-12-02T04:41:26.082Z,20.17
2017-12-02T04:41:54.725Z,20.22
2017-12-02T04:42:23.137Z,20.21
2017-12-02T04:42:51.632Z,20.19
2017-12-02T04:43:20.228Z,20.14
2017-12-02T04:43:48.979Z,20.17
2017-12-02T04:44:17.563Z,20.11
2017-12-02T04:44:45.860Z,20.08
2017-12-02T04:45:14.379Z,20.11
2017-12-02T04:45:42.995Z,20.07
2017-12-02T04:46:11.619Z,20.14
2017-12-02T04:46:40.245Z,20.11
2017-12-02T04:47:08.879Z,20.14
2017-12-02T04:47:37.480Z,20.15
2017-12-02T04:48:06.072Z,20.15
2017-12-02T04:48:34.675Z,20.14
2017-12-02T04:49:03.234Z,20.17
2017-12-02T04:49:31.760Z,20.18
2017-12-02T04:50:00.257Z,20.15
2017-12-02T04:50:28.765Z,20.14
2017-12-02T04:50:57.177Z,20.27
2017-12-02T04:51:25.797Z,20.26
2017-12-02T04:51:54.381Z,20.27
2017-12-02T04:52:22.890Z,20.17
2017-12-02T04:52:51.496Z,20.19
2017-12-02T04:53:20.121Z,20.34
2017-12-02T04:53:48.792Z,20.34
2017-12-02T04:54:17.280Z,20.32
2017-12-02T04:54:45.695Z,20.3
2017-12-02T04:55:14.275Z,20.3
2017-12-02T04:55:42.793Z,20.36
2017-12-02T04:56:11.281Z,20.32
2017-12-02T04:56:39.792Z,20.34
2017-12-02T04:57:08.311Z,20.32
2017-12-02T04:57:36.799Z,20.27
2017-12-02T04:58:05.279Z,20.36
2017-12-02T04:58:33.864Z,20.24
2017-12-02T04:59:02.550Z,20.24
2017-12-02T04:59:31.036Z,20.18
2017-12-02T04:59:59.636Z,20.22
2017-12-02T05:00:28.190Z,20.18
2017-12-02T05:00:56.725Z,20.24
2017-12-02T05:01:25.324Z,20.19
2017-12-02T05:01:53.924Z,20.29
2017-12-02T05:02:22.417Z,20.32
2017-12-02T05:02:51.035Z,20.33
2017-12-02T05:03:19.534Z,20.34
2017-12-02T05:03:48.023Z,20.19
2017-12-02T05:04:16.424Z,20.26
2017-12-02T05:04:45.015Z,20.22
2017-12-02T05:05:13.516Z,20.26
2017-12-02T05:05:42.152Z,20.27
2017-12-02T05:06:10.763Z,20.17
2017-12-02T05:06:39.416Z,20.22
2017-12-02T05:07:07.971Z,20.24
2017-12-02T05:07:36.546Z,20.17
2017-12-02T05:08:05.139Z,20.12
2017-12-02T05:08:33.619Z,20.12
2017-12-02T05:09:02.132Z,20.11
2017-12-02T05:09:30.715Z,20.17
2017-12-02T05:09:59.339Z,20.04
2017-12-02T05:10:27.881Z,20.07
2017-12-02T05:10:56.500Z,20.07
2017-12-02T05:11:24.973Z,20.04
2017-12-02T05:11:53.586Z,20.03
2017-12-02T05:12:22.113Z,20.08
2017-12-02T05:12:50.706Z,20.12
2017-12-02T05:13:19.143Z,20.15
2017-12-02T05:13:47.737Z,20.08
2017-12-02T05:14:16.228Z,20.04
2017-12-02T05:14:44.824Z,20.11
2017-12-02T05:15:13.358Z,20.08
2017-12-02T05:15:41.989Z,20.08
2017-12-02T05:16:10.511Z,20.07
2017-12-02T05:16:39.123Z,20.04
2017-12-02T05:17:07.742Z,20.12
2017-12-02T05:17:36.224Z,20.1
2017-12-02T05:18:04.816Z,19.99
2017-12-02T05:18:33.279Z,20.1
2017-12-02T05:19:01.885Z,20.11
2017-12-02T05:19:30.520Z,20.08
2017-12-02T05:19:59.076Z,20.1
2017-12-02T05:20:27.707Z,20.07
2017-12-02T05:20:56.305Z,20.1
2017-12-02T05:21:24.889Z,20.03
2017-12-02T05:21:53.275Z,20.07
2017-12-02T05:22:21.957Z,20.07
2017-12-02T05:22:50.567Z,20.04
2017-12-02T05:23:19.177Z,20.04
2017-12-02T05:23:47.762Z,20.03
2017-12-02T05:24:16.468Z,20.07
2017-12-02T05:24:45.065Z,20.04
2017-12-02T05:25:13.668Z,20.04
2017-12-02T05:25:42.276Z,20.14
2017-12-02T05:26:10.877Z,20.11
2017-12-02T05:26:39.491Z,20.11
2017-12-02T05:27:08.081Z,20.08
2017-12-02T05:27:36.478Z,20.08
2017-12-02T05:28:04.966Z,20.08
2017-12-02T05:28:33.557Z,20.08
2017-12-02T05:29:02.144Z,20.11
2017-12-02T05:29:30.637Z,20.12
2017-12-02T05:29:59.143Z,20.08
2017-12-02T05:30:27.732Z,20.08
2017-12-02T05:30:56.343Z,20.12
2017-12-02T05:31:24.929Z,20.15
2017-12-02T05:31:53.533Z,20.17
2017-12-02T05:32:22.029Z,20.21
2017-12-02T05:32:50.667Z,20.15
2017-12-02T05:33:19.253Z,20.17
2017-12-02T05:33:47.731Z,20.17
2017-12-02T05:34:16.310Z,20.22
2017-12-02T05:34:44.820Z,20.27
2017-12-02T05:35:13.405Z,20.21
2017-12-02T05:35:41.911Z,20.24
2017-12-02T05:36:10.519Z,20.21
2017-12-02T05:36:39.085Z,20.18
2017-12-02T05:37:07.494Z,20.22
2017-12-02T05:37:36.022Z,20.34
2017-12-02T05:38:04.643Z,20.29
2017-12-02T05:38:33.066Z,20.24
2017-12-02T05:39:01.646Z,20.21
2017-12-02T05:39:30.407Z,20.24
2017-12-02T05:39:59.010Z,20.24
2017-12-02T05:40:27.548Z,20.15
2017-12-02T05:40:56.147Z,20.22
2017-12-02T05:41:24.771Z,20.24
2017-12-02T05:41:53.388Z,20.21
2017-12-02T05:42:21.995Z,20.22
2017-12-02T05:42:50.609Z,20.22
2017-12-02T05:43:19.235Z,20.26
2017-12-02T05:43:47.815Z,20.22
2017-12-02T05:44:16.307Z,20.19
2017-12-02T05:44:44.935Z,20.22
2017-12-02T05:45:13.516Z,20.17
2017-12-02T05:45:42.087Z,20.17
2017-12-02T05:46:10.665Z,20.21
2017-12-02T05:46:39.198Z,20.14
2017-12-02T05:47:08.515Z,20.17
2017-12-02T05:47:37.188Z,20.21
2017-12-02T05:48:05.771Z,20.15
2017-12-02T05:48:34.353Z,20.14
2017-12-02T05:49:02.946Z,20.11
2017-12-02T05:49:31.506Z,20.12
2017-12-02T05:50:00.103Z,20.17
2017-12-02T05:50:28.718Z,20.14
2017-12-02T05:50:57.147Z,20.15
2017-12-02T05:51:25.743Z,20.07
2017-12-02T05:51:54.237Z,20.14
2017-12-02T05:52:22.843Z,20.1
2017-12-02T05:52:51.463Z,20.07
2017-12-02T05:53:19.976Z,20.12
2017-12-02T05:53:48.586Z,20.08
2017-12-02T05:54:17.338Z,20.1
2017-12-02T05:54:45.945Z,20.1
2017-12-02T05:55:14.507Z,20.1
2017-12-02T05:55:43.101Z,20.11
2017-12-02T05:56:11.690Z,19.99
2017-12-02T05:56:40.275Z,20.07
2017-12-02T05:57:08.776Z,20.08
2017-12-02T05:57:37.365Z,20.03
2017-12-02T05:58:05.938Z,20.04
2017-12-02T05:58:34.537Z,19.96
2017-12-02T05:59:03.143Z,19.96
2017-12-02T05:59:31.749Z,19.99
2017-12-02T06:00:00.149Z,20.04
2017-12-02T06:00:28.536Z,19.96
2017-12-02T06:00:57.066Z,19.99
2017-12-02T06:01:25.614Z,19.97
2017-12-02T06:01:54.094Z,19.92
2017-12-02T06:02:22.695Z,19.97
2017-12-02T06:02:51.325Z,19.93
2017-12-02T06:03:20.167Z,19.82
2017-12-02T06:03:48.800Z,19.87
2017-12-02T06:04:17.411Z,19.93
2017-12-02T06:04:45.999Z,19.89
2017-12-02T06:05:14.516Z,19.85
2017-12-02T06:05:43.000Z,19.89
2017-12-02T06:06:11.517Z,19.85
2017-12-02T06:06:40.028Z,19.9
2017-12-02T06:07:08.692Z,19.84
2017-12-02T06:07:37.176Z,19.85
2017-12-02T06:08:05.789Z,19.84